Time;durP1;ratioP1;P1;durP2;ratioP2;P2;SDS_P1;SDS_P2;PMS_P1;PMS_P2;Temp;Humidity;BMP_temperature;BMP_pressure;BME280_temperature;BME280_humidity;BME280_pressure;Samples;Min_cycle;Max_cycle;Signal;HPM_P1;HPM_P2
2022/10/12 00:00:05;;;;;;;3.30;1.70;;;;;;;0.47;100.00;101715.13;5035879;28;20043;-45
2022/10/12 00:02:31;;;;;;;4.47;0.98;;;;;;;0.43;100.00;101720.50;5042186;28;20037;-48
2022/10/12 00:04:56;;;;;;;4.20;0.85;;;;;;;0.45;100.00;101717.81;5040621;28;20039;-46
2022/10/12 00:07:21;;;;;;;2.95;1.48;;;;;;;0.41;100.00;101727.59;5033553;28;20117;-46
2022/10/12 00:09:47;;;;;;;4.18;1.15;;;;;;;0.40;100.00;101725.09;5045796;28;20036;-45
2022/10/12 00:12:12;;;;;;;6.53;1.15;;;;;;;0.40;100.00;101727.69;5043272;28;20512;-48
2022/10/12 00:14:37;;;;;;;2.35;1.00;;;;;;;0.36;100.00;101724.44;5035597;28;20120;-47
2022/10/12 00:17:03;;;;;;;3.17;0.63;;;;;;;0.33;100.00;101724.59;5047438;28;20036;-46
2022/10/12 00:19:28;;;;;;;6.50;2.60;;;;;;;0.32;100.00;101716.91;5038352;28;20423;-46
2022/10/12 00:21:54;;;;;;;4.72;1.08;;;;;;;0.31;100.00;101720.41;5032639;28;20076;-48
2022/10/12 00:24:19;;;;;;;3.28;1.17;;;;;;;0.32;100.00;101717.72;5038395;28;20021;-47
2022/10/12 00:26:44;;;;;;;2.03;1.25;;;;;;;0.34;100.00;101722.88;5034538;28;20115;-50
2022/10/12 00:29:10;;;;;;;2.88;1.08;;;;;;;0.35;100.00;101733.19;5036029;28;20075;-44
2022/10/12 00:31:35;;;;;;;2.55;1.50;;;;;;;0.37;100.00;101725.28;5042825;28;20033;-46
2022/10/12 00:34:02;;;;;;;1.92;0.98;;;;;;;0.39;100.00;101726.84;5037932;28;20161;-46
2022/10/12 00:36:32;;;;;;;4.80;1.67;;;;;;;0.48;100.00;101717.59;5036095;28;20128;-47
2022/10/12 00:38:59;;;;;;;2.35;1.23;;;;;;;0.50;100.00;101717.53;5034952;28;20029;-49
2022/10/12 00:41:29;;;;;;;2.00;0.98;;;;;;;0.50;100.00;101715.75;5033058;28;20037;-46
2022/10/12 00:43:54;;;;;;;1.58;0.90;;;;;;;0.49;100.00;101714.09;5032657;28;20068;-47
2022/10/12 00:46:26;;;;;;;3.65;0.90;;;;;;;0.49;100.00;101714.09;5035634;28;20549;-47
2022/10/12 00:48:58;;;;;;;3.50;1.20;;;;;;;0.54;100.00;101713.78;5037921;28;20490;-49
2022/10/12 00:51:25;;;;;;;2.80;1.02;;;;;;;0.56;100.00;101715.34;5035993;28;20128;-48
2022/10/12 00:54:00;;;;;;;3.10;0.88;;;;;;;0.60;100.00;101711.63;5040039;28;20040;-47
2022/10/12 00:56:29;;;;;;;2.42;0.82;;;;;;;0.60;100.00;101705.59;5031791;28;20037;-46
2022/10/12 00:58:59;;;;;;;12.93;0.57;;;;;;;0.59;100.00;101712.53;5031619;28;20040;-44
2022/10/12 01:01:26;;;;;;;4.85;0.73;;;;;;;0.55;100.00;101715.47;5036092;28;20575;-46
2022/10/12 01:03:51;;;;;;;3.40;0.98;;;;;;;0.56;100.00;101714.53;5038380;28;20070;-47
2022/10/12 01:06:17;;;;;;;1.85;1.25;;;;;;;0.54;100.00;101709.41;5033558;28;20433;-48
2022/10/12 01:08:43;;;;;;;3.70;1.17;;;;;;;0.53;100.00;101714.72;5029503;28;20124;-48
2022/10/12 01:11:09;;;;;;;2.40;0.80;;;;;;;0.48;100.00;101711.56;5040045;28;20064;-47
2022/10/12 01:13:35;;;;;;;3.45;0.95;;;;;;;0.45;100.00;101712.59;5037835;28;20025;-45
2022/10/12 01:16:06;;;;;;;7.47;1.35;;;;;;;0.46;100.00;101710.81;5036789;28;20036;-47
2022/10/12 01:18:48;;;;;;;3.97;1.00;;;;;;;0.42;100.00;101712.78;5038170;28;20057;-45
2022/10/12 01:21:20;;;;;;;1.98;0.82;;;;;;;0.36;100.00;101713.16;5041474;28;20107;-44
2022/10/12 01:24:22;;;;;;;2.17;1.20;;;;;;;0.33;100.00;101713.34;5040376;28;20045;-45
2022/10/12 01:27:25;;;;;;;3.45;1.38;;;;;;;0.32;100.00;101706.47;5036723;28;20048;-45
2022/10/12 01:30:11;;;;;;;1.52;0.68;;;;;;;0.28;100.00;101710.16;5039193;28;20459;-45
2022/10/12 01:33:04;;;;;;;1.42;0.77;;;;;;;0.27;100.00;101713.72;5038836;28;20390;-47
2022/10/12 01:35:36;;;;;;;1.33;0.38;;;;;;;0.24;100.00;101708.72;5037464;28;20382;-45
2022/10/12 01:38:27;;;;;;;2.03;0.82;;;;;;;0.22;100.00;101701.78;5037872;28;20035;-46
2022/10/12 01:41:05;;;;;;;1.40;0.40;;;;;;;0.19;100.00;101707.19;5042461;28;20040;-47
2022/10/12 01:43:36;;;;;;;4.57;1.00;;;;;;;0.13;100.00;101702.38;5027787;28;20048;-45
2022/10/12 01:46:24;;;;;;;5.13;1.25;;;;;;;0.11;100.00;101703.41;5038050;28;20060;-46
2022/10/12 01:48:54;;;;;;;4.10;0.75;;;;;;;0.06;100.00;101693.25;5038239;28;20091;-45
2022/10/12 01:51:48;;;;;;;0.82;0.40;;;;;;;0.05;100.00;101690.72;5026588;28;20187;-48
2022/10/12 01:54:35;;;;;;;1.48;0.77;;;;;;;0.03;100.00;101685.59;5040828;28;20041;-48
2022/10/12 01:57:09;;;;;;;1.58;0.47;;;;;;;0.01;100.00;101681.41;5035330;28;20036;-44
2022/10/12 01:59:55;;;;;;;2.47;1.05;;;;;;;-0.05;100.00;101674.81;5031881;28;20033;-45
2022/10/12 02:02:33;;;;;;;0.35;0.22;;;;;;;-0.11;100.00;101677.75;5041265;28;20453;-46
2022/10/12 02:05:06;;;;;;;3.08;0.80;;;;;;;-0.16;100.00;101670.22;5031783;28;20642;-45
2022/10/12 02:07:43;;;;;;;2.08;0.47;;;;;;;-0.19;100.00;101669.56;5032398;28;20053;-44
2022/10/12 02:10:19;;;;;;;2.50;0.45;;;;;;;-0.19;100.00;101665.19;5038367;28;20087;-44
2022/10/12 02:12:48;;;;;;;0.65;0.43;;;;;;;-0.18;100.00;101660.81;5038545;28;20048;-45
2022/10/12 02:15:15;;;;;;;3.13;0.52;;;;;;;-0.22;100.00;101663.59;5029904;28;20114;-46
2022/10/12 02:17:45;;;;;;;7.80;1.25;;;;;;;-0.25;100.00;101661.19;5034739;28;20029;-47
2022/10/12 02:20:15;;;;;;;2.65;0.65;;;;;;;-0.24;100.00;101659.41;5039296;28;20371;-46
2022/10/12 02:22:45;;;;;;;3.50;1.10;;;;;;;-0.26;100.00;101662.13;5031332;28;20042;-45
2022/10/12 02:25:13;;;;;;;1.25;1.00;;;;;;;-0.26;100.00;101656.91;5038415;28;20490;-46
2022/10/12 02:27:42;;;;;;;1.73;0.88;;;;;;;-0.26;100.00;101654.31;5027587;28;20135;-45
2022/10/12 02:30:09;;;;;;;1.70;0.88;;;;;;;-0.26;100.00;101651.72;5033061;28;20064;-46
2022/10/12 02:32:40;;;;;;;3.75;1.20;;;;;;;-0.24;100.00;101649.81;5028128;28;20445;-45
2022/10/12 02:35:08;;;;;;;;;;;;;;;-0.20;100.00;101644.44;5032625;28;20036;-47
2022/10/12 02:37:50;;;;;;;2.28;0.55;;;;;;;-0.19;100.00;101653.94;5033258;28;19925;-43
2022/10/12 02:40:29;;;;;;;2.10;1.15;;;;;;;-0.16;100.00;101648.53;5036694;28;20068;-45
2022/10/12 02:43:04;;;;;;;1.45;0.77;;;;;;;-0.10;100.00;101640.34;5030702;28;20033;-45
2022/10/12 02:45:31;;;;;;;2.13;0.60;;;;;;;-0.04;100.00;101642.56;5040156;28;20399;-45
2022/10/12 02:47:59;;;;;;;2.75;0.60;;;;;;;0.04;100.00;101639.50;5029113;28;20106;-45
2022/10/12 02:50:25;;;;;;;3.75;1.20;;;;;;;0.07;100.00;101634.09;5035462;28;21620;-45
2022/10/12 02:52:51;;;;;;;3.60;2.05;;;;;;;0.14;100.00;101631.00;5039505;28;20037;-44
2022/10/12 02:55:17;;;;;;;1.15;0.38;;;;;;;0.21;100.00;101626.25;5039963;28;20029;-45
2022/10/12 02:57:42;;;;;;;3.67;1.35;;;;;;;0.24;100.00;101620.84;5040332;28;20385;-45
2022/10/12 03:00:08;;;;;;;0.60;0.60;;;;;;;0.27;100.00;101625.03;5039936;28;20382;-45
2022/10/12 03:02:34;;;;;;;1.70;1.00;;;;;;;0.33;100.00;101619.41;5038128;28;20036;-45
2022/10/12 03:04:59;;;;;;;2.67;1.05;;;;;;;0.38;100.00;101614.75;5041129;28;20441;-47
2022/10/12 03:07:24;;;;;;;4.30;1.45;;;;;;;0.47;100.00;101618.56;5038544;28;20033;-47
2022/10/12 03:09:50;;;;;;;5.25;1.90;;;;;;;0.58;100.00;101618.69;5042975;28;20057;-46
2022/10/12 03:12:15;;;;;;;4.28;0.68;;;;;;;0.65;100.00;101605.16;5038997;28;20025;-48
2022/10/12 03:14:40;;;;;;;1.42;0.88;;;;;;;0.71;100.00;101606.53;5035540;28;20036;-48
2022/10/12 03:17:06;;;;;;;1.80;0.35;;;;;;;0.76;100.00;101601.00;5039901;28;20028;-45
2022/10/12 03:19:31;;;;;;;1.48;0.65;;;;;;;0.81;100.00;101609.38;5042279;28;20374;-44
2022/10/12 03:21:57;;;;;;;0.30;0.20;;;;;;;0.89;100.00;101598.44;5036300;28;20107;-48
2022/10/12 03:24:22;;;;;;;0.30;0.20;;;;;;;0.98;100.00;101595.19;5035435;28;20032;-47
2022/10/12 03:26:47;;;;;;;1.45;0.52;;;;;;;1.01;100.00;101597.63;5037255;28;20100;-46
2022/10/12 03:29:13;;;;;;;2.90;1.23;;;;;;;1.03;100.00;101590.50;5043939;28;20029;-47
2022/10/12 03:31:38;;;;;;;3.40;0.57;;;;;;;1.07;100.00;101592.00;5033651;28;20347;-48
2022/10/12 03:34:04;;;;;;;4.15;0.70;;;;;;;1.08;100.00;101580.59;5047890;28;20034;-45
2022/10/12 03:36:29;;;;;;;4.68;0.32;;;;;;;1.07;100.00;101571.94;5037240;28;20045;-47
2022/10/12 03:38:55;;;;;;;3.10;0.95;;;;;;;1.08;100.00;101565.78;5035557;28;20032;-49
2022/10/12 03:41:20;;;;;;;1.92;0.82;;;;;;;1.11;100.00;101533.41;5043708;28;20047;-45
2022/10/12 03:43:46;;;;;;;1.55;1.25;;;;;;;1.20;100.00;101550.22;5036722;28;20025;-47
2022/10/12 03:46:11;;;;;;;2.35;0.98;;;;;;;1.30;100.00;101528.56;5039607;28;20075;-47
2022/10/12 03:48:36;;;;;;;0.98;0.40;;;;;;;1.39;100.00;101545.38;5037616;28;20394;-49
2022/10/12 03:51:02;;;;;;;5.30;1.27;;;;;;;1.44;100.00;101543.28;5032072;28;20021;-50
2022/10/12 03:53:27;;;;;;;1.50;1.20;;;;;;;1.49;100.00;101541.19;5040606;28;20080;-46
2022/10/12 03:55:53;;;;;;;2.30;0.55;;;;;;;1.53;100.00;101539.22;5031399;28;20056;-47
2022/10/12 03:58:18;;;;;;;5.57;1.23;;;;;;;1.53;100.00;101523.53;5032438;28;20778;-45
2022/10/12 04:00:43;;;;;;;2.17;1.30;;;;;;;1.69;100.00;101546.84;5041194;28;20086;-48
2022/10/12 04:03:09;;;;;;;2.00;1.00;;;;;;;1.80;100.00;101535.63;5034991;28;20033;-45
2022/10/12 04:05:34;;;;;;;2.72;0.82;;;;;;;1.81;100.00;101553.81;5034604;28;20067;-46
2022/10/12 04:08:00;;;;;;;3.13;1.45;;;;;;;1.80;100.00;101544.28;5044062;28;20111;-43
2022/10/12 04:10:25;;;;;;;0.60;0.60;;;;;;;1.72;100.00;101538.78;5031197;28;20478;-43
2022/10/12 04:12:51;;;;;;;4.88;0.68;;;;;;;1.64;100.00;101547.16;5034253;28;20041;-45
2022/10/12 04:15:19;;;;;;;1.45;1.25;;;;;;;1.61;100.00;101541.31;5036607;28;20033;-43
2022/10/12 04:17:45;;;;;;;1.08;0.43;;;;;;;1.56;100.00;101546.03;5033059;28;20083;-46
2022/10/12 04:20:11;;;;;;;1.23;0.38;;;;;;;1.61;100.00;101547.38;5039112;28;20467;-44
2022/10/12 04:22:37;;;;;;;7.07;0.40;;;;;;;1.63;100.00;101549.88;5035561;28;20784;-46
2022/10/12 04:25:03;;;;;;;3.10;0.93;;;;;;;1.56;100.00;101548.63;5032694;28;20037;-45
2022/10/12 04:27:29;;;;;;;1.38;0.25;;;;;;;1.48;100.00;101547.38;5037721;28;20855;-46
2022/10/12 04:29:54;;;;;;;1.30;0.57;;;;;;;1.44;100.00;101550.31;5036999;28;20061;-45
2022/10/12 04:32:19;;;;;;;0.93;0.77;;;;;;;1.46;100.00;101553.66;5039392;28;20029;-47
2022/10/12 04:34:45;;;;;;;1.17;0.50;;;;;;;1.48;100.00;101543.94;5033794;28;20029;-48
2022/10/12 04:37:10;;;;;;;1.58;0.73;;;;;;;1.46;100.00;101554.47;5031627;28;20453;-46
2022/10/12 04:39:35;;;;;;;5.57;1.08;;;;;;;1.51;100.00;101546.34;5031321;28;20114;-46
2022/10/12 04:42:01;;;;;;;1.35;0.45;;;;;;;1.56;100.00;101548.63;5037804;28;20029;-45
2022/10/12 04:44:27;;;;;;;0.75;0.52;;;;;;;1.61;100.00;101541.31;5032662;28;20030;-47
2022/10/12 04:46:52;;;;;;;4.90;1.92;;;;;;;1.63;100.00;101549.88;5043449;28;20025;-45
2022/10/12 04:49:17;;;;;;;2.22;1.10;;;;;;;1.65;100.00;101543.59;5034727;28;20097;-45
2022/10/12 04:51:43;;;;;;;4.57;0.65;;;;;;;1.66;100.00;101547.06;5036568;28;20131;-47
2022/10/12 04:54:09;;;;;;;3.22;1.05;;;;;;;1.67;100.00;101548.72;5045431;28;20152;-46
2022/10/12 04:56:34;;;;;;;1.83;0.70;;;;;;;1.67;100.00;101546.94;5031023;28;20041;-44
2022/10/12 04:59:00;;;;;;;6.45;2.38;;;;;;;1.70;100.00;101536.28;5037111;28;20108;-49
2022/10/12 05:01:25;;;;;;;3.33;0.55;;;;;;;1.72;100.00;101538.78;5039781;28;20063;-45
2022/10/12 05:03:50;;;;;;;5.47;0.93;;;;;;;1.74;100.00;101540.34;5039411;28;20021;-49
2022/10/12 05:06:16;;;;;;;1.33;0.88;;;;;;;1.75;100.00;101544.59;5033418;28;20235;-49
2022/10/12 05:08:41;;;;;;;4.38;1.70;;;;;;;1.79;100.00;101544.41;5046229;28;20497;-47
2022/10/12 05:11:06;;;;;;;5.10;0.90;;;;;;;1.84;100.00;101537.91;5030680;28;20076;-46
2022/10/12 05:13:32;;;;;;;4.68;1.20;;;;;;;1.86;100.00;101527.31;5039770;28;20398;-45
2022/10/12 05:15:57;;;;;;;4.82;2.97;;;;;;;1.88;100.00;101528.88;5045701;28;20033;-45
2022/10/12 05:18:23;;;;;;;5.25;0.65;;;;;;;1.91;100.00;101531.31;5031939;28;20033;-46
2022/10/12 05:20:48;;;;;;;1.92;1.40;;;;;;;1.96;100.00;101523.09;5036186;28;20037;-45
2022/10/12 05:23:14;;;;;;;1.38;0.90;;;;;;;2.00;100.00;101536.81;5033280;28;20022;-45
2022/10/12 05:25:39;;;;;;;2.08;0.63;;;;;;;2.07;100.00;101535.44;5033515;28;20497;-45
2022/10/12 05:28:06;;;;;;;0.55;0.55;;;;;;;2.11;100.00;101540.31;5037704;28;20129;-45
2022/10/12 05:30:31;;;;;;;4.55;0.63;;;;;;;2.13;100.00;101548.06;5030999;28;20128;-45
2022/10/12 05:32:56;;;;;;;1.50;0.95;;;;;;;2.16;100.00;101540.00;5040364;28;20155;-47
2022/10/12 05:35:22;;;;;;;6.30;0.63;;;;;;;2.16;100.00;101537.38;5033006;28;20038;-44
2022/10/12 05:37:47;;;;;;;4.63;2.22;;;;;;;2.20;100.00;101533.63;5040587;28;20029;-44
2022/10/12 05:40:13;;;;;;;1.27;0.65;;;;;;;2.23;100.00;101538.63;5042846;28;20021;-45
2022/10/12 05:42:38;;;;;;;3.70;1.10;;;;;;;2.29;100.00;101537.34;5042194;28;20099;-46
2022/10/12 05:45:04;;;;;;;1.08;0.57;;;;;;;2.34;100.00;101529.97;5035725;28;20603;-46
2022/10/12 05:47:29;;;;;;;3.25;1.42;;;;;;;2.35;100.00;101535.13;5037719;28;20609;-45
2022/10/12 05:49:55;;;;;;;4.20;0.73;;;;;;;2.34;100.00;101533.44;5037113;28;20039;-45
2022/10/12 05:52:20;;;;;;;2.13;0.75;;;;;;;2.33;100.00;101530.94;5035512;28;20503;-46
2022/10/12 05:54:46;;;;;;;2.38;0.80;;;;;;;2.35;100.00;101537.75;5034664;28;20033;-45
2022/10/12 05:57:13;;;;;;;5.35;1.42;;;;;;;2.35;100.00;101523.78;5038911;28;20028;-45
2022/10/12 05:59:39;;;;;;;0.85;0.30;;;;;;;2.36;100.00;101528.09;5039192;28;20049;-45
2022/10/12 06:02:04;;;;;;;1.45;0.47;;;;;;;2.38;100.00;101528.81;5040961;28;20498;-44
2022/10/12 06:04:29;;;;;;;2.55;1.13;;;;;;;2.42;100.00;101537.28;5039229;28;20067;-44
2022/10/12 06:06:55;;;;;;;2.30;1.10;;;;;;;2.44;100.00;101527.53;5037034;28;20116;-46
2022/10/12 06:09:20;;;;;;;4.63;1.08;;;;;;;2.47;100.00;101527.31;5032945;28;20065;-45
2022/10/12 06:11:45;;;;;;;3.78;0.95;;;;;;;2.53;100.00;101519.00;5027350;28;20163;-44
2022/10/12 06:14:11;;;;;;;2.33;1.13;;;;;;;2.58;100.00;101520.34;5037410;28;20044;-45
2022/10/12 06:16:36;;;;;;;5.97;1.48;;;;;;;2.64;100.00;101529.53;5033552;28;20090;-46
2022/10/12 06:19:02;;;;;;;2.05;0.70;;;;;;;2.70;100.00;101528.22;5039897;28;20040;-48
2022/10/12 06:21:27;;;;;;;5.53;0.55;;;;;;;2.74;100.00;101519.22;5034539;28;20467;-48
2022/10/12 06:23:53;;;;;;;1.55;0.70;;;;;;;2.78;100.00;101526.69;5030624;28;20041;-45
2022/10/12 06:26:18;;;;;;;0.80;0.75;;;;;;;2.86;100.00;101520.88;5038387;28;20462;-47
2022/10/12 06:28:43;;;;;;;1.92;1.13;;;;;;;2.95;100.00;101519.38;5034939;28;20061;-47
2022/10/12 06:31:10;;;;;;;12.32;1.52;;;;;;;3.00;100.00;101518.06;5043524;28;20025;-45
2022/10/12 06:33:35;;;;;;;3.45;1.00;;;;;;;3.03;100.00;101517.00;5042992;28;20032;-47
2022/10/12 06:36:01;;;;;;;3.78;1.70;;;;;;;3.05;100.00;101508.06;5042617;28;20033;-45
2022/10/12 06:38:26;;;;;;;1.75;0.70;;;;;;;3.11;100.00;101509.38;5039739;28;20487;-47
2022/10/12 06:40:52;;;;;;;3.47;0.50;;;;;;;3.15;100.00;101510.84;5032936;28;20030;-44
2022/10/12 06:43:18;;;;;;;5.35;0.90;;;;;;;3.16;100.00;101515.09;5035200;28;20021;-45
2022/10/12 06:45:44;;;;;;;2.05;0.65;;;;;;;3.21;100.00;101514.75;5036187;28;20025;-44
2022/10/12 06:48:10;;;;;;;1.85;1.00;;;;;;;3.26;100.00;101517.88;5037864;28;20032;-44
2022/10/12 06:50:35;;;;;;;12.30;1.15;;;;;;;3.32;100.00;101504.28;5039590;28;20624;-47
2022/10/12 06:53:00;;;;;;;3.53;0.90;;;;;;;3.37;100.00;101517.03;5027728;28;20032;-45
2022/10/12 06:55:27;;;;;;;4.72;1.40;;;;;;;3.42;100.00;101517.50;5036813;28;20134;-44
2022/10/12 06:57:54;;;;;;;4.88;1.15;;;;;;;3.46;100.00;101525.03;5032530;28;20060;-45
2022/10/12 07:00:19;;;;;;;7.05;1.15;;;;;;;3.44;100.00;101516.44;5035528;28;20358;-45
2022/10/12 07:02:48;;;;;;;3.90;0.68;;;;;;;3.44;100.00;101511.19;5029319;28;20143;-45
2022/10/12 07:05:15;;;;;;;3.28;0.70;;;;;;;3.43;100.00;101524.41;5047454;28;20045;-46
2022/10/12 07:07:41;;;;;;;14.10;1.73;;;;;;;3.43;100.00;101520.03;5040339;28;20025;-46
2022/10/12 07:10:07;;;;;;;0.60;0.50;;;;;;;3.46;100.00;101517.16;5041505;28;20052;-47
2022/10/12 07:12:34;;;;;;;1.63;0.60;;;;;;;3.54;100.00;101519.19;5036445;28;20037;-48
2022/10/12 07:15:00;;;;;;;4.43;0.73;;;;;;;3.65;100.00;101516.53;5036764;28;20028;-46
2022/10/12 07:17:25;;;;;;;11.50;4.88;;;;;;;3.78;100.00;101516.41;5041324;28;20140;-45
2022/10/12 07:19:50;;;;;;;9.90;5.15;;;;;;;3.90;100.00;101514.63;5037118;28;20107;-48
2022/10/12 07:22:16;;;;;;;5.50;2.05;;;;;;;4.01;100.00;101513.75;5039560;28;20458;-47
2022/10/12 07:24:41;;;;;;;1.60;1.42;;;;;;;4.10;100.00;101513.84;5039308;28;20522;-47
2022/10/12 07:27:09;;;;;;;8.55;2.28;;;;;;;4.21;100.00;101502.50;5046683;28;20053;-44
2022/10/12 07:29:35;;;;;;;8.27;1.27;;;;;;;4.30;100.00;101500.91;5032935;28;20033;-49
2022/10/12 07:32:01;;;;;;;6.82;2.55;;;;;;;4.36;100.00;101503.88;5042400;28;20032;-49
2022/10/12 07:34:27;;;;;;;2.88;1.98;;;;;;;4.44;100.00;101508.50;5033948;28;20029;-48
2022/10/12 07:36:53;;;;;;;2.22;1.40;;;;;;;4.50;100.00;101504.53;5045325;28;20456;-48
2022/10/12 07:39:18;;;;;;;2.97;2.65;;;;;;;4.56;100.00;101504.00;5042744;28;20029;-45
2022/10/12 07:41:44;;;;;;;7.30;2.65;;;;;;;4.59;100.00;101512.47;5039249;28;20049;-45
2022/10/12 07:44:10;;;;;;;4.47;0.68;;;;;;;4.63;100.00;101509.59;5036519;28;20029;-45
2022/10/12 07:46:35;;;;;;;8.10;1.33;;;;;;;4.64;100.00;101512.06;5031497;28;20454;-45
2022/10/12 07:49:01;;;;;;;2.50;1.30;;;;;;;4.67;100.00;101500.47;5032357;28;20029;-44
2022/10/12 07:51:26;;;;;;;4.45;2.03;;;;;;;4.70;100.00;101492.34;5042608;28;20033;-45
2022/10/12 07:53:52;;;;;;;6.57;2.95;;;;;;;4.77;100.00;101496.94;5033574;28;20033;-45
2022/10/12 07:56:17;;;;;;;5.97;0.90;;;;;;;4.82;100.00;101501.84;5046658;28;20029;-45
2022/10/12 07:58:54;;;;;;;5.55;0.85;;;;;;;4.94;100.00;101498.19;5030304;28;20067;-45
2022/10/12 08:01:21;;;;;;;5.80;2.03;;;;;;;5.05;100.00;101491.19;5044417;28;20090;-45
2022/10/12 08:03:48;;;;;;;5.28;0.95;;;;;;;5.13;100.00;101480.84;5037823;28;20033;-45
2022/10/12 08:06:16;;;;;;;4.00;1.92;;;;;;;5.22;100.00;101477.44;5042074;28;20183;-44
2022/10/12 08:08:42;;;;;;;6.53;2.53;;;;;;;5.30;100.00;101482.03;5044320;28;20075;-45
2022/10/12 08:11:09;;;;;;;4.65;1.13;;;;;;;5.38;100.00;101485.66;5042927;28;20120;-50
2022/10/12 08:13:35;;;;;;;2.35;2.17;;;;;;;5.42;100.00;101481.81;5037532;28;20041;-45
2022/10/12 08:16:02;;;;;;;4.93;1.15;;;;;;;5.45;100.00;101471.03;5038672;28;20025;-44
2022/10/12 08:18:28;;;;;;;6.88;2.78;;;;;;;5.43;100.00;101478.22;5035944;28;20509;-44
2022/10/12 08:20:53;;;;;;;2.22;1.05;;;;;;;5.44;100.00;101473.78;5036474;28;20056;-45
2022/10/12 08:23:19;;;;;;;2.63;1.02;;;;;;;5.57;100.00;101465.66;5044698;28;20029;-48
2022/10/12 08:25:55;;;;;;;4.57;1.42;;;;;;;5.60;100.00;101460.97;5042082;28;20650;-45
2022/10/12 08:28:21;;;;;;;5.20;1.25;;;;;;;5.58;100.00;101459.44;5048054;28;20049;-44
2022/10/12 08:30:47;;;;;;;2.58;1.25;;;;;;;5.60;100.00;101450.44;5040320;28;20025;-47
2022/10/12 08:33:12;;;;;;;6.13;1.77;;;;;;;5.62;100.00;101450.28;5045132;28;20026;-46
2022/10/12 08:35:39;;;;;;;4.03;2.03;;;;;;;5.70;100.00;101453.06;5043375;28;20323;-46
2022/10/12 08:38:05;;;;;;;7.68;1.80;;;;;;;5.80;100.00;101453.09;5034153;28;20148;-45
2022/10/12 08:40:34;;;;;;;6.30;1.92;;;;;;;5.91;100.00;101466.13;5039588;28;20025;-45
2022/10/12 08:43:09;;;;;;;7.00;2.05;;;;;;;6.01;100.00;101456.47;5042355;28;20029;-45
2022/10/12 08:45:55;;;;;;;6.07;1.50;;;;;;;6.13;100.00;101461.63;5042270;28;20072;-44
2022/10/12 08:48:20;;;;;;;4.13;1.77;;;;;;;6.09;100.00;101464.53;5033410;28;20041;-45
2022/10/12 08:50:56;;;;;;;3.17;1.27;;;;;;;6.09;100.00;101455.78;5041205;28;20087;-46
2022/10/12 08:53:30;;;;;;;4.80;2.78;;;;;;;6.10;100.00;101463.56;5039271;28;20091;-46
2022/10/12 08:55:58;;;;;;;4.32;2.15;;;;;;;6.13;100.00;101451.09;5044931;28;20397;-44
2022/10/12 08:58:30;;;;;;;4.78;2.53;;;;;;;6.20;100.00;101449.59;5035193;28;20024;-46
2022/10/12 09:01:36;;;;;;;3.65;1.98;;;;;;;6.17;100.00;101444.56;5032327;28;20056;-46
2022/10/12 09:04:10;;;;;;;7.00;2.20;;;;;;;6.39;100.00;101441.66;5036176;28;20517;-46
2022/10/12 09:07:00;;;;;;;5.60;2.63;;;;;;;6.78;100.00;101434.50;5047583;28;20493;-48
2022/10/12 09:09:44;;;;;;;12.98;3.33;;;;;;;7.21;100.00;101456.84;5038482;28;20072;-45
2022/10/12 09:12:15;;;;;;;7.95;4.10;;;;;;;7.69;100.00;101462.84;5037354;28;20025;-50
2022/10/12 09:14:42;;;;;;;8.15;2.17;;;;;;;8.00;100.00;101458.09;5041945;28;20124;-46
2022/10/12 09:17:20;;;;;;;6.32;1.77;;;;;;;8.33;100.00;101468.13;5037476;28;20079;-48
2022/10/12 09:19:46;;;;;;;3.65;1.73;;;;;;;8.59;100.00;101460.25;5040055;28;20033;-46
2022/10/12 09:22:18;;;;;;;6.60;1.55;;;;;;;8.84;100.00;101461.25;5038991;28;20048;-50
2022/10/12 09:24:47;;;;;;;24.20;4.50;;;;;;;9.03;100.00;101454.91;5039634;28;20060;-46
2022/10/12 09:27:18;;;;;;;6.35;1.52;;;;;;;9.29;100.00;101461.03;5040662;28;20036;-47
2022/10/12 09:30:05;;;;;;;6.93;2.22;;;;;;;9.64;100.00;101467.09;5040311;28;20129;-47
2022/10/12 09:33:08;;;;;;;7.45;1.85;;;;;;;10.15;100.00;101461.75;5038489;28;20044;-47
2022/10/12 09:35:35;;;;;;;6.82;1.58;;;;;;;10.28;100.00;101467.44;5040475;28;20136;-46
2022/10/12 09:38:01;;;;;;;8.80;1.80;;;;;;;10.30;100.00;101472.53;5040107;28;20037;-48
2022/10/12 09:40:31;;;;;;;6.55;2.95;;;;;;;10.31;100.00;101455.66;5036419;28;20036;-48
2022/10/12 09:43:02;;;;;;;6.35;2.03;;;;;;;10.40;100.00;101450.22;5033597;28;20508;-49
2022/10/12 09:45:30;;;;;;;6.47;2.33;;;;;;;10.52;100.00;101453.31;5042071;28;20041;-50
2022/10/12 09:48:19;;;;;;;13.10;1.95;;;;;;;10.66;100.00;101455.31;5038742;28;20043;-46
2022/10/12 09:50:51;;;;;;;8.77;2.88;;;;;;;10.78;100.00;101457.63;5038681;28;20117;-47
2022/10/12 09:53:25;;;;;;;7.50;2.35;;;;;;;10.82;100.00;101456.28;5041274;28;20025;-47
2022/10/12 09:55:56;;;;;;;14.07;2.30;;;;;;;10.81;100.00;101452.78;5039790;28;20029;-46
2022/10/12 09:58:24;;;;;;;6.28;1.10;;;;;;;10.82;100.00;101443.03;5041473;28;20504;-46
2022/10/12 10:01:10;;;;;;;12.23;1.60;;;;;;;10.92;100.00;101448.97;5038029;28;20029;-48
2022/10/12 10:03:35;;;;;;;5.05;1.67;;;;;;;11.03;100.00;101445.13;5035161;28;20041;-48
2022/10/12 10:06:03;;;;;;;9.82;1.38;;;;;;;11.17;100.00;101438.28;5038148;28;20083;-46
2022/10/12 10:08:39;;;;;;;7.43;2.00;;;;;;;11.29;100.00;101437.72;5036342;28;20437;-45
2022/10/12 10:11:11;;;;;;;8.93;2.50;;;;;;;11.40;100.00;101441.00;5034083;28;20476;-47
2022/10/12 10:13:37;;;;;;;7.47;1.17;;;;;;;11.43;100.00;101424.72;5038053;28;20029;-46
2022/10/12 10:16:09;;;;;;;8.48;1.95;;;;;;;11.56;100.00;101422.31;5033052;28;20508;-45
2022/10/12 10:18:34;;;;;;;;;;;;;;;11.66;100.00;101427.41;5040943;28;20033;-50
2022/10/12 10:21:01;;;;;;;6.15;1.67;;;;;;;11.76;100.00;101420.06;5046466;28;19931;-46
2022/10/12 10:23:31;;;;;;;9.27;1.80;;;;;;;11.86;100.00;101415.38;5045398;28;20037;-46
2022/10/12 10:26:18;;;;;;;3.75;1.20;;;;;;;11.95;100.00;101405.50;5037779;28;20036;-50
2022/10/12 10:28:46;;;;;;;6.13;1.30;;;;;;;12.00;100.00;101385.38;5040545;28;20040;-50
2022/10/12 10:31:12;;;;;;;8.48;2.38;;;;;;;12.02;100.00;101371.06;5045570;28;20029;-51
2022/10/12 10:33:37;;;;;;;8.45;2.33;;;;;;;12.04;100.00;101366.41;5043161;28;20060;-48
2022/10/12 10:36:13;;;;;;;3.38;1.42;;;;;;;12.06;100.00;101364.41;5045099;28;20033;-46
2022/10/12 10:39:04;;;;;;;9.45;1.63;;;;;;;12.13;100.00;101360.00;5043884;28;20040;-46
2022/10/12 10:41:41;;;;;;;10.25;1.88;;;;;;;12.15;100.00;101342.03;5041289;28;20045;-46
2022/10/12 10:44:24;;;;;;;7.30;1.67;;;;;;;12.26;100.00;101338.13;5032240;28;20087;-46
2022/10/12 10:46:51;;;;;;;6.10;1.35;;;;;;;12.39;100.00;101338.31;5033340;28;20062;-47
2022/10/12 10:49:46;;;;;;;4.38;1.30;;;;;;;12.51;100.00;101320.09;5042196;28;20024;-48
2022/10/12 10:52:22;;;;;;;7.78;1.98;;;;;;;12.51;100.00;101312.94;5042241;28;20029;-46
2022/10/12 10:54:48;;;;;;;5.07;1.20;;;;;;;12.53;100.00;101304.78;5040879;28;20032;-47
2022/10/12 10:57:20;;;;;;;6.32;1.67;;;;;;;12.62;100.00;101319.63;5043582;28;20041;-47
2022/10/12 10:59:56;;;;;;;7.40;1.88;;;;;;;12.92;100.00;101309.78;5041824;28;20021;-47
2022/10/12 11:02:46;;;;;;;10.95;2.50;;;;;;;13.16;100.00;101313.94;5037958;28;20532;-46
2022/10/12 11:05:14;;;;;;;8.57;2.38;;;;;;;13.32;100.00;101304.97;5041827;28;20112;-47
2022/10/12 11:08:18;;;;;;;3.20;1.58;;;;;;;13.42;100.00;101294.78;5040641;28;20032;-46
2022/10/12 11:10:49;;;;;;;11.98;1.17;;;;;;;13.66;100.00;101298.94;5041008;28;20099;-47
2022/10/12 11:13:46;;;;;;;12.65;2.50;;;;;;;13.91;100.00;101312.69;5042145;28;20040;-48
2022/10/12 11:16:40;;;;;;;8.45;2.92;;;;;;;14.16;100.00;101310.38;5037999;28;20036;-49
2022/10/12 11:19:19;;;;;;;3.47;1.40;;;;;;;14.47;100.00;101303.00;5035587;28;20038;-47
2022/10/12 11:21:51;;;;;;;4.53;1.45;;;;;;;14.63;100.00;101300.03;5034450;28;20057;-50
2022/10/12 11:24:27;;;;;;;16.52;2.67;;;;;;;14.61;100.00;101300.25;5035660;28;20037;-52
2022/10/12 11:27:00;;;;;;;5.35;2.75;;;;;;;14.87;100.00;101303.22;5035060;28;20499;-48
2022/10/12 11:29:26;;;;;;;7.95;1.83;;;;;;;15.19;100.00;101296.34;5040009;28;20040;-52
2022/10/12 11:31:51;;;;;;;11.73;2.05;;;;;;;15.27;100.00;101282.81;5036871;28;20021;-50
2022/10/12 11:34:21;;;;;;;22.77;3.13;;;;;;;15.37;100.00;101290.44;5038694;28;20037;-52